Anzahl Datensätze: 286
min. Temperatur: 5.2 °C
max. Temperatur: 8.4 °C
max. Windgeschwindigkeit: 17.6 km/h
Niederschlagsumme: 0.0 mm
| Datum |
Zeit |
Temp °C |
Feuchte % |
Taupunkt °C |
Luftdruck hPa |
Wind km/h |
Windrichtung |
Strahlung w/m² |
Niederschlag mm |
|---|---|---|---|---|---|---|---|---|---|
| 13.11.2024 | 00:03 | 7.0 | 82 | 4.1 | 1030.4 | 3.2 | N | 0 | 0.0 |
| 13.11.2024 | 00:08 | 6.9 | 82 | 4.0 | 1030.3 | 1.4 | NNO | 0 | 0.0 |
| 13.11.2024 | 00:13 | 6.8 | 82 | 3.9 | 1030.3 | 4.7 | ONO | 0 | 0.0 |
| 13.11.2024 | 00:18 | 6.7 | 82 | 3.8 | 1030.2 | 3.2 | NO | 0 | 0.0 |
| 13.11.2024 | 00:23 | 6.6 | 83 | 3.9 | 1030.3 | 4.7 | NO | 0 | 0.0 |
| 13.11.2024 | 00:28 | 6.5 | 83 | 3.8 | 1030.2 | 4.7 | NNO | 0 | 0.0 |
| 13.11.2024 | 00:33 | 6.6 | 83 | 3.9 | 1030.3 | 6.5 | NNO | 0 | 0.0 |
| 13.11.2024 | 00:38 | 6.5 | 83 | 3.8 | 1030.5 | 1.4 | NNO | 0 | 0.0 |
| 13.11.2024 | 00:43 | 6.6 | 84 | 4.1 | 1030.5 | 4.7 | N | 0 | 0.0 |
| 13.11.2024 | 00:48 | 6.6 | 84 | 4.1 | 1030.5 | 1.4 | N | 0 | 0.0 |
| 13.11.2024 | 00:53 | 6.6 | 84 | 4.1 | 1030.5 | 4.7 | NO | 0 | 0.0 |
| 13.11.2024 | 00:58 | 6.6 | 84 | 4.1 | 1030.4 | 6.5 | NO | 0 | 0.0 |
| 13.11.2024 | 01:03 | 6.5 | 84 | 4.0 | 1030.3 | 6.5 | NO | 0 | 0.0 |
| 13.11.2024 | 01:08 | 6.5 | 83 | 3.8 | 1030.4 | 1.4 | N | 0 | 0.0 |
| 13.11.2024 | 01:13 | 6.5 | 83 | 3.8 | 1030.4 | 6.5 | NNO | 0 | 0.0 |
| 13.11.2024 | 01:18 | 6.4 | 83 | 3.7 | 1030.5 | 6.5 | NO | 0 | 0.0 |
| 13.11.2024 | 01:24 | 6.4 | 83 | 3.7 | 1030.4 | 3.2 | NO | 0 | 0.0 |
| 13.11.2024 | 01:29 | 6.4 | 83 | 3.7 | 1030.5 | 1.4 | NO | 0 | 0.0 |
| 13.11.2024 | 01:34 | 6.4 | 83 | 3.7 | 1030.4 | 3.2 | N | 0 | 0.0 |
| 13.11.2024 | 01:39 | 6.3 | 83 | 3.6 | 1030.4 | 6.5 | NNO | 0 | 0.0 |
| 13.11.2024 | 01:44 | 6.2 | 83 | 3.5 | 1030.4 | 7.9 | NNW | 0 | 0.0 |
| 13.11.2024 | 01:49 | 6.1 | 83 | 3.4 | 1030.4 | 3.2 | NNO | 0 | 0.0 |
| 13.11.2024 | 01:54 | 6.0 | 83 | 3.3 | 1030.4 | 3.2 | N | 0 | 0.0 |
| 13.11.2024 | 01:59 | 5.9 | 83 | 3.2 | 1030.5 | 3.2 | NO | 0 | 0.0 |
| 13.11.2024 | 02:04 | 5.9 | 83 | 3.2 | 1030.4 | 1.4 | ONO | 0 | 0.0 |
| 13.11.2024 | 02:09 | 5.8 | 83 | 3.1 | 1030.4 | 4.7 | NNO | 0 | 0.0 |
| 13.11.2024 | 02:14 | 5.7 | 83 | 3.0 | 1030.4 | 6.5 | NO | 0 | 0.0 |
| 13.11.2024 | 02:19 | 5.6 | 83 | 2.9 | 1030.4 | 1.4 | NO | 0 | 0.0 |
| 13.11.2024 | 02:24 | 5.6 | 83 | 2.9 | 1030.4 | 3.2 | NNO | 0 | 0.0 |
| 13.11.2024 | 02:29 | 5.4 | 83 | 2.7 | 1030.3 | 11.2 | NO | 0 | 0.0 |
| 13.11.2024 | 02:34 | 5.5 | 83 | 2.8 | 1030.3 | 9.7 | N | 0 | 0.0 |
| 13.11.2024 | 02:39 | 5.5 | 83 | 2.8 | 1030.4 | 7.9 | NO | 0 | 0.0 |
| 13.11.2024 | 02:44 | 5.6 | 82 | 2.8 | 1030.4 | 7.9 | NO | 0 | 0.0 |
| 13.11.2024 | 02:49 | 5.6 | 82 | 2.8 | 1030.5 | 3.2 | NO | 0 | 0.0 |
| 13.11.2024 | 02:54 | 5.6 | 82 | 2.8 | 1030.5 | 4.7 | ONO | 0 | 0.0 |
| 13.11.2024 | 02:59 | 5.6 | 82 | 2.8 | 1030.6 | 3.2 | NO | 0 | 0.0 |
| 13.11.2024 | 03:04 | 5.6 | 82 | 2.8 | 1030.6 | 3.2 | NO | 0 | 0.0 |
| 13.11.2024 | 03:09 | 5.6 | 82 | 2.8 | 1030.6 | 6.5 | NNO | 0 | 0.0 |
| 13.11.2024 | 03:14 | 5.7 | 82 | 2.9 | 1030.6 | 7.9 | N | 0 | 0.0 |
| 13.11.2024 | 03:19 | 5.7 | 82 | 2.9 | 1030.5 | 4.7 | N | 0 | 0.0 |
| 13.11.2024 | 03:24 | 5.7 | 82 | 2.9 | 1030.4 | 3.2 | NNO | 0 | 0.0 |
| 13.11.2024 | 03:29 | 5.7 | 82 | 2.9 | 1030.4 | 3.2 | NO | 0 | 0.0 |
| 13.11.2024 | 03:34 | 5.7 | 81 | 2.7 | 1030.4 | 6.5 | NO | 0 | 0.0 |
| 13.11.2024 | 03:39 | 5.7 | 81 | 2.7 | 1030.2 | 6.5 | NO | 0 | 0.0 |
| 13.11.2024 | 03:44 | 5.7 | 81 | 2.7 | 1030.2 | 1.4 | NNO | 0 | 0.0 |
| 13.11.2024 | 03:49 | 5.7 | 81 | 2.7 | 1030.2 | 1.4 | NO | 0 | 0.0 |
| 13.11.2024 | 03:54 | 5.7 | 81 | 2.7 | 1030.2 | 6.5 | NO | 0 | 0.0 |
| 13.11.2024 | 03:59 | 5.7 | 81 | 2.7 | 1030.2 | 3.2 | ONO | 0 | 0.0 |
| 13.11.2024 | 04:04 | 5.7 | 81 | 2.7 | 1030.2 | 4.7 | O | 0 | 0.0 |
| 13.11.2024 | 04:09 | 5.6 | 81 | 2.6 | 1030.2 | 7.9 | NO | 0 | 0.0 |
| 13.11.2024 | 04:15 | 5.6 | 81 | 2.6 | 1030.1 | 3.2 | NNO | 0 | 0.0 |
| 13.11.2024 | 04:20 | 5.6 | 81 | 2.6 | 1030.1 | 9.7 | O | 0 | 0.0 |
| 13.11.2024 | 04:25 | 5.6 | 81 | 2.6 | 1030.0 | 4.7 | NO | 0 | 0.0 |
| 13.11.2024 | 04:30 | 5.6 | 81 | 2.6 | 1030.0 | 6.5 | NO | 0 | 0.0 |
| 13.11.2024 | 04:35 | 5.5 | 81 | 2.5 | 1030.0 | 4.7 | NO | 0 | 0.0 |
| 13.11.2024 | 04:40 | 5.5 | 81 | 2.5 | 1030.1 | 4.7 | NNO | 0 | 0.0 |
| 13.11.2024 | 04:45 | 5.5 | 81 | 2.5 | 1030.1 | 4.7 | NO | 0 | 0.0 |
| 13.11.2024 | 04:50 | 5.4 | 81 | 2.4 | 1030.1 | 1.4 | NNO | 0 | 0.0 |
| 13.11.2024 | 04:55 | 5.4 | 81 | 2.4 | 1030.2 | 3.2 | NO | 0 | 0.0 |
| 13.11.2024 | 05:00 | 5.4 | 81 | 2.4 | 1030.2 | 4.7 | NO | 0 | 0.0 |
| 13.11.2024 | 05:05 | 5.4 | 82 | 2.6 | 1030.2 | 3.2 | NNO | 0 | 0.0 |
| 13.11.2024 | 05:10 | 5.4 | 82 | 2.6 | 1030.3 | 1.4 | NNO | 0 | 0.0 |
| 13.11.2024 | 05:15 | 5.4 | 82 | 2.6 | 1030.3 | 6.5 | N | 0 | 0.0 |
| 13.11.2024 | 05:20 | 5.4 | 82 | 2.6 | 1030.3 | 7.9 | ONO | 0 | 0.0 |
| 13.11.2024 | 05:25 | 5.4 | 82 | 2.6 | 1030.2 | 6.5 | NO | 0 | 0.0 |
| 13.11.2024 | 05:30 | 5.4 | 82 | 2.6 | 1030.1 | 4.7 | NO | 0 | 0.0 |
| 13.11.2024 | 05:35 | 5.4 | 82 | 2.6 | 1030.2 | 3.2 | NO | 0 | 0.0 |
| 13.11.2024 | 05:40 | 5.4 | 82 | 2.6 | 1030.2 | 3.2 | NO | 0 | 0.0 |
| 13.11.2024 | 05:45 | 5.4 | 82 | 2.6 | 1030.2 | 4.7 | ONO | 0 | 0.0 |
| 13.11.2024 | 05:50 | 5.4 | 82 | 2.6 | 1030.2 | 9.7 | NO | 0 | 0.0 |
| 13.11.2024 | 05:55 | 5.4 | 82 | 2.6 | 1030.3 | 6.5 | NO | 0 | 0.0 |
| 13.11.2024 | 06:00 | 5.5 | 82 | 2.7 | 1030.4 | 4.7 | N | 0 | 0.0 |
| 13.11.2024 | 06:05 | 5.5 | 83 | 2.8 | 1030.5 | 1.4 | NNO | 0 | 0.0 |
| 13.11.2024 | 06:10 | 5.5 | 83 | 2.8 | 1030.5 | 3.2 | NO | 0 | 0.0 |
| 13.11.2024 | 06:15 | 5.4 | 83 | 2.7 | 1030.5 | 1.4 | O | 0 | 0.0 |
| 13.11.2024 | 06:20 | 5.4 | 83 | 2.7 | 1030.5 | 6.5 | NW | 0 | 0.0 |
| 13.11.2024 | 06:25 | 5.4 | 83 | 2.7 | 1030.6 | 4.7 | NO | 0 | 0.0 |
| 13.11.2024 | 06:30 | 5.4 | 83 | 2.7 | 1030.5 | 3.2 | NO | 0 | 0.0 |
| 13.11.2024 | 06:35 | 5.4 | 84 | 2.9 | 1030.5 | 1.4 | NNO | 0 | 0.0 |
| 13.11.2024 | 06:40 | 5.4 | 84 | 2.9 | 1030.5 | 0.0 | ONO | 0 | 0.0 |
| 13.11.2024 | 06:45 | 5.3 | 84 | 2.8 | 1030.5 | 1.4 | NO | 0 | 0.0 |
| 13.11.2024 | 06:50 | 5.3 | 84 | 2.8 | 1030.5 | 1.4 | ONO | 0 | 0.0 |
| 13.11.2024 | 06:55 | 5.3 | 84 | 2.8 | 1030.6 | 1.4 | ONO | 0 | 0.0 |
| 13.11.2024 | 07:01 | 5.3 | 84 | 2.8 | 1030.6 | 1.4 | ONO | 0 | 0.0 |
| 13.11.2024 | 07:06 | 5.3 | 84 | 2.8 | 1030.6 | 1.4 | ONO | 0 | 0.0 |
| 13.11.2024 | 07:11 | 5.2 | 84 | 2.7 | 1030.6 | 1.4 | ONO | 0 | 0.0 |
| 13.11.2024 | 07:16 | 5.2 | 85 | 2.9 | 1030.7 | 1.4 | ONO | 0 | 0.0 |
| 13.11.2024 | 07:21 | 5.2 | 85 | 2.9 | 1030.7 | 4.7 | NNO | 0 | 0.0 |
| 13.11.2024 | 07:26 | 5.2 | 85 | 2.9 | 1030.7 | 0.0 | NNO | 0 | 0.0 |
| 13.11.2024 | 07:31 | 5.2 | 85 | 2.9 | 1030.8 | 0.0 | NO | 0 | 0.0 |
| 13.11.2024 | 07:36 | 5.2 | 85 | 2.9 | 1030.8 | 1.4 | NO | 0 | 0.0 |
| 13.11.2024 | 07:41 | 5.2 | 85 | 2.9 | 1030.8 | 1.4 | NO | 0 | 0.0 |
| 13.11.2024 | 07:46 | 5.2 | 85 | 2.9 | 1030.9 | 4.7 | NO | 0 | 0.0 |
| 13.11.2024 | 07:51 | 5.3 | 85 | 3.0 | 1030.8 | 1.4 | NO | 0 | 0.0 |
| 13.11.2024 | 07:56 | 5.3 | 85 | 3.0 | 1030.9 | 4.7 | NO | 0 | 0.0 |
| 13.11.2024 | 08:01 | 5.3 | 85 | 3.0 | 1030.9 | 4.7 | NO | 0 | 0.0 |
| 13.11.2024 | 08:06 | 5.3 | 85 | 3.0 | 1031.0 | 4.7 | NO | 5 | 0.0 |
| 13.11.2024 | 08:11 | 5.4 | 84 | 2.9 | 1031.0 | 0.0 | NO | 11 | 0.0 |
| 13.11.2024 | 08:16 | 5.4 | 84 | 2.9 | 1030.9 | 3.2 | NO | 12 | 0.0 |
| 13.11.2024 | 08:21 | 5.4 | 84 | 2.9 | 1030.9 | 4.7 | NO | 12 | 0.0 |
| 13.11.2024 | 08:26 | 5.4 | 84 | 2.9 | 1031.0 | 1.4 | ONO | 18 | 0.0 |
| 13.11.2024 | 08:31 | 5.5 | 84 | 3.0 | 1031.1 | 4.7 | ONO | 26 | 0.0 |
| 13.11.2024 | 08:36 | 5.5 | 84 | 3.0 | 1031.1 | 1.4 | NO | 28 | 0.0 |
| 13.11.2024 | 08:41 | 5.5 | 84 | 3.0 | 1031.2 | 3.2 | ONO | 23 | 0.0 |
| 13.11.2024 | 08:46 | 5.6 | 84 | 3.1 | 1031.2 | 3.2 | N | 33 | 0.0 |
| 13.11.2024 | 08:51 | 5.6 | 84 | 3.1 | 1031.2 | 3.2 | NNW | 47 | 0.0 |
| 13.11.2024 | 08:56 | 5.6 | 84 | 3.1 | 1031.2 | 1.4 | N | 51 | 0.0 |
| 13.11.2024 | 09:01 | 5.6 | 84 | 3.1 | 1031.2 | 0.0 | NO | 56 | 0.0 |
| 13.11.2024 | 09:06 | 5.5 | 84 | 3.0 | 1031.2 | 0.0 | NNW | 62 | 0.0 |
| 13.11.2024 | 09:11 | 5.5 | 84 | 3.0 | 1031.3 | 0.0 | NNO | 63 | 0.0 |
| 13.11.2024 | 09:16 | 5.5 | 84 | 3.0 | 1031.4 | 3.2 | N | 63 | 0.0 |
| 13.11.2024 | 09:21 | 5.4 | 84 | 2.9 | 1031.5 | 0.0 | NO | 67 | 0.0 |
| 13.11.2024 | 09:26 | 5.4 | 84 | 2.9 | 1031.4 | 1.4 | NNO | 69 | 0.0 |
| 13.11.2024 | 09:31 | 5.4 | 84 | 2.9 | 1031.4 | 1.4 | NNO | 74 | 0.0 |
| 13.11.2024 | 09:36 | 5.5 | 84 | 3.0 | 1031.4 | 1.4 | NNO | 83 | 0.0 |
| 13.11.2024 | 09:41 | 5.5 | 84 | 3.0 | 1031.5 | 3.2 | N | 86 | 0.0 |
| 13.11.2024 | 09:46 | 5.6 | 84 | 3.1 | 1031.5 | 3.2 | NO | 100 | 0.0 |
| 13.11.2024 | 09:51 | 5.7 | 84 | 3.2 | 1031.6 | 1.4 | N | 135 | 0.0 |
| 13.11.2024 | 09:56 | 5.8 | 84 | 3.3 | 1031.6 | 7.9 | N | 160 | 0.0 |
| 13.11.2024 | 10:02 | 5.9 | 84 | 3.4 | 1031.7 | 4.7 | NNO | 146 | 0.0 |
| 13.11.2024 | 10:07 | 6.1 | 84 | 3.6 | 1031.7 | 6.5 | NO | 111 | 0.0 |
| 13.11.2024 | 10:12 | 6.2 | 83 | 3.5 | 1031.8 | 6.5 | NO | 128 | 0.0 |
| 13.11.2024 | 10:17 | 6.2 | 83 | 3.5 | 1031.8 | 6.5 | NO | 130 | 0.0 |
| 13.11.2024 | 10:22 | 6.2 | 82 | 3.4 | 1031.8 | 3.2 | NO | 123 | 0.0 |
| 13.11.2024 | 10:27 | 6.3 | 82 | 3.5 | 1031.8 | 7.9 | ONO | 127 | 0.0 |
| 13.11.2024 | 10:32 | 6.3 | 82 | 3.5 | 1031.8 | 3.2 | N | 141 | 0.0 |
| 13.11.2024 | 10:37 | 6.4 | 82 | 3.6 | 1031.8 | 4.7 | NNO | 134 | 0.0 |
| 13.11.2024 | 10:42 | 6.4 | 81 | 3.4 | 1031.8 | 4.7 | N | 134 | 0.0 |
| 13.11.2024 | 10:47 | 6.6 | 81 | 3.6 | 1031.9 | 1.4 | NNW | 156 | 0.0 |
| 13.11.2024 | 10:52 | 6.6 | 81 | 3.6 | 1032.0 | 7.9 | NO | 163 | 0.0 |
| 13.11.2024 | 10:57 | 6.7 | 81 | 3.7 | 1032.0 | 4.7 | NNO | 176 | 0.0 |
| 13.11.2024 | 11:02 | 6.8 | 80 | 3.6 | 1032.0 | 3.2 | NNO | 193 | 0.0 |
| 13.11.2024 | 11:07 | 6.8 | 80 | 3.6 | 1032.0 | 4.7 | NNO | 209 | 0.0 |
| 13.11.2024 | 11:12 | 7.0 | 80 | 3.8 | 1031.9 | 4.7 | NNO | 206 | 0.0 |
| 13.11.2024 | 11:17 | 7.1 | 79 | 3.7 | 1031.8 | 6.5 | NNO | 211 | 0.0 |
| 13.11.2024 | 11:22 | 7.2 | 79 | 3.8 | 1031.8 | 3.2 | NNO | 199 | 0.0 |
| 13.11.2024 | 11:27 | 7.2 | 79 | 3.8 | 1031.8 | 9.7 | NO | 174 | 0.0 |
| 13.11.2024 | 11:32 | 7.2 | 79 | 3.8 | 1031.7 | 6.5 | ONO | 165 | 0.0 |
| 13.11.2024 | 11:37 | 7.2 | 78 | 3.6 | 1031.6 | 4.7 | NO | 158 | 0.0 |
| 13.11.2024 | 11:42 | 7.2 | 78 | 3.6 | 1031.5 | 6.5 | NNO | 160 | 0.0 |
| 13.11.2024 | 11:47 | 7.2 | 78 | 3.6 | 1031.5 | 0.0 | NO | 153 | 0.0 |
| 13.11.2024 | 11:52 | 7.2 | 79 | 3.8 | 1031.5 | 1.4 | ONO | 146 | 0.0 |
| 13.11.2024 | 11:57 | 7.3 | 79 | 3.9 | 1031.5 | 4.7 | ONO | 142 | 0.0 |
| 13.11.2024 | 12:02 | 7.3 | 78 | 3.7 | 1031.5 | 4.7 | ONO | 142 | 0.0 |
| 13.11.2024 | 12:07 | 7.3 | 79 | 3.9 | 1031.5 | 3.2 | NO | 153 | 0.0 |
| 13.11.2024 | 12:12 | 7.3 | 79 | 3.9 | 1031.6 | 4.7 | NO | 165 | 0.0 |
| 13.11.2024 | 12:17 | 7.4 | 79 | 4.0 | 1031.6 | 6.5 | ONO | 174 | 0.0 |
| 13.11.2024 | 12:22 | 7.4 | 79 | 4.0 | 1031.6 | 3.2 | NO | 190 | 0.0 |
| 13.11.2024 | 12:27 | 7.5 | 78 | 3.9 | 1031.7 | 3.2 | NNW | 176 | 0.0 |
| 13.11.2024 | 12:33 | 7.5 | 78 | 3.9 | 1031.7 | 3.2 | NNO | 167 | 0.0 |
| 13.11.2024 | 12:38 | 7.6 | 78 | 4.0 | 1031.6 | 3.2 | NO | 183 | 0.0 |
| 13.11.2024 | 12:43 | 7.7 | 79 | 4.3 | 1031.5 | 3.2 | NO | 186 | 0.0 |
| 13.11.2024 | 12:48 | 7.7 | 78 | 4.1 | 1031.4 | 3.2 | ONO | 195 | 0.0 |
| 13.11.2024 | 12:53 | 7.8 | 78 | 4.2 | 1031.4 | 7.9 | ONO | 206 | 0.0 |
| 13.11.2024 | 12:58 | 7.8 | 78 | 4.2 | 1031.5 | 4.7 | NW | 206 | 0.0 |
| 13.11.2024 | 13:03 | 7.8 | 78 | 4.2 | 1031.5 | 7.9 | NNO | 211 | 0.0 |
| 13.11.2024 | 13:08 | 7.8 | 77 | 4.0 | 1031.6 | 7.9 | NO | 146 | 0.0 |
| 13.11.2024 | 13:13 | 7.9 | 77 | 4.1 | 1031.6 | 4.7 | NNW | 178 | 0.0 |
| 13.11.2024 | 13:18 | 7.9 | 77 | 4.1 | 1031.5 | 1.4 | NO | 236 | 0.0 |
| 13.11.2024 | 13:23 | 7.9 | 77 | 4.1 | 1031.5 | 7.9 | NNO | 193 | 0.0 |
| 13.11.2024 | 13:28 | 8.0 | 77 | 4.2 | 1031.3 | 1.4 | NO | 160 | 0.0 |
| 13.11.2024 | 13:33 | 8.1 | 76 | 4.1 | 1031.3 | 7.9 | NO | 190 | 0.0 |
| 13.11.2024 | 13:38 | 8.1 | 76 | 4.1 | 1031.3 | 6.5 | ONO | 200 | 0.0 |
| 13.11.2024 | 13:43 | 8.1 | 76 | 4.1 | 1031.3 | 4.7 | ONO | 207 | 0.0 |
| 13.11.2024 | 13:48 | 8.2 | 76 | 4.2 | 1031.1 | 7.9 | NO | 195 | 0.0 |
| 13.11.2024 | 13:53 | 8.3 | 76 | 4.3 | 1031.1 | 1.4 | NNO | 213 | 0.0 |
| 13.11.2024 | 13:58 | 8.3 | 76 | 4.3 | 1031.0 | 4.7 | ONO | 183 | 0.0 |
| 13.11.2024 | 14:03 | 8.4 | 76 | 4.4 | 1031.0 | 4.7 | NNO | 165 | 0.0 |
| 13.11.2024 | 14:08 | 8.4 | 77 | 4.6 | 1030.9 | 3.2 | NNW | 123 | 0.0 |
| 13.11.2024 | 14:13 | 8.4 | 77 | 4.6 | 1030.9 | 4.7 | NNO | 97 | 0.0 |
| 13.11.2024 | 14:18 | 8.3 | 77 | 4.5 | 1030.9 | 3.2 | N | 79 | 0.0 |
| 13.11.2024 | 14:23 | 8.2 | 77 | 4.4 | 1030.8 | 1.4 | NNW | 79 | 0.0 |
| 13.11.2024 | 14:28 | 8.2 | 78 | 4.6 | 1030.8 | 0.0 | N | 77 | 0.0 |
| 13.11.2024 | 14:33 | 8.1 | 78 | 4.5 | 1030.7 | 3.2 | NNW | 79 | 0.0 |
| 13.11.2024 | 14:38 | 7.9 | 78 | 4.3 | 1030.6 | 3.2 | ONO | 77 | 0.0 |
| 13.11.2024 | 14:43 | 7.9 | 78 | 4.3 | 1030.5 | 1.4 | NNW | 76 | 0.0 |
| 13.11.2024 | 14:48 | 7.8 | 78 | 4.2 | 1030.4 | 3.2 | N | 62 | 0.0 |
| 13.11.2024 | 14:53 | 7.8 | 79 | 4.4 | 1030.4 | 3.2 | NO | 58 | 0.0 |
| 13.11.2024 | 14:58 | 7.8 | 79 | 4.4 | 1030.4 | 1.4 | NNW | 47 | 0.0 |
| 13.11.2024 | 15:03 | 7.8 | 79 | 4.4 | 1030.5 | 0.0 | N | 47 | 0.0 |
| 13.11.2024 | 15:08 | 7.8 | 79 | 4.4 | 1030.6 | 1.4 | NNW | 40 | 0.0 |
| 13.11.2024 | 15:13 | 7.7 | 79 | 4.3 | 1030.6 | 3.2 | NO | 33 | 0.0 |
| 13.11.2024 | 15:18 | 7.6 | 79 | 4.2 | 1030.6 | 1.4 | NNO | 33 | 0.0 |
| 13.11.2024 | 15:23 | 7.6 | 80 | 4.4 | 1030.7 | 1.4 | N | 37 | 0.0 |
| 13.11.2024 | 15:29 | 7.6 | 80 | 4.4 | 1030.7 | 6.5 | NNO | 35 | 0.0 |
| 13.11.2024 | 15:34 | 7.4 | 80 | 4.2 | 1030.7 | 0.0 | NNO | 35 | 0.0 |
| 13.11.2024 | 15:39 | 7.3 | 80 | 4.1 | 1030.6 | 3.2 | ONO | 33 | 0.0 |
| 13.11.2024 | 15:44 | 7.3 | 80 | 4.1 | 1030.7 | 1.4 | NNO | 33 | 0.0 |
| 13.11.2024 | 15:49 | 7.3 | 80 | 4.1 | 1030.8 | 1.4 | NO | 33 | 0.0 |
| 13.11.2024 | 15:54 | 7.3 | 80 | 4.1 | 1030.7 | 1.4 | NO | 32 | 0.0 |
| 13.11.2024 | 15:59 | 7.3 | 80 | 4.1 | 1030.7 | 3.2 | NNO | 23 | 0.0 |
| 13.11.2024 | 16:04 | 7.3 | 80 | 4.1 | 1030.8 | 1.4 | NNO | 23 | 0.0 |
| 13.11.2024 | 16:09 | 7.3 | 80 | 4.1 | 1030.9 | 3.2 | NNO | 19 | 0.0 |
| 13.11.2024 | 16:14 | 7.2 | 80 | 4.0 | 1031.0 | 1.4 | N | 18 | 0.0 |
| 13.11.2024 | 16:19 | 7.2 | 80 | 4.0 | 1030.9 | 1.4 | N | 12 | 0.0 |
| 13.11.2024 | 16:24 | 7.2 | 80 | 4.0 | 1030.9 | 0.0 | N | 14 | 0.0 |
| 13.11.2024 | 16:29 | 7.2 | 80 | 4.0 | 1030.8 | 0.0 | N | 19 | 0.0 |
| 13.11.2024 | 16:34 | 7.2 | 80 | 4.0 | 1031.0 | 0.0 | N | 18 | 0.0 |
| 13.11.2024 | 16:39 | 7.2 | 80 | 4.0 | 1031.0 | 0.0 | N | 11 | 0.0 |
| 13.11.2024 | 16:44 | 7.2 | 80 | 4.0 | 1031.0 | 0.0 | N | 9 | 0.0 |
| 13.11.2024 | 16:49 | 7.2 | 81 | 4.2 | 1031.0 | 0.0 | N | 0 | 0.0 |
| 13.11.2024 | 16:54 | 7.2 | 81 | 4.2 | 1031.0 | 0.0 | N | 0 | 0.0 |
| 13.11.2024 | 16:59 | 7.2 | 81 | 4.2 | 1031.1 | 0.0 | N | 0 | 0.0 |
| 13.11.2024 | 17:04 | 7.2 | 81 | 4.2 | 1031.0 | 0.0 | N | 0 | 0.0 |
| 13.11.2024 | 17:09 | 7.1 | 81 | 4.1 | 1031.0 | 0.0 | N | 0 | 0.0 |
| 13.11.2024 | 17:14 | 7.1 | 81 | 4.1 | 1030.9 | 0.0 | N | 0 | 0.0 |
| 13.11.2024 | 17:19 | 7.1 | 82 | 4.2 | 1031.0 | 0.0 | N | 0 | 0.0 |
| 13.11.2024 | 17:24 | 7.0 | 82 | 4.1 | 1031.0 | 0.0 | N | 0 | 0.0 |
| 13.11.2024 | 17:29 | 6.9 | 82 | 4.0 | 1031.0 | 0.0 | N | 0 | 0.0 |
| 13.11.2024 | 17:34 | 6.9 | 82 | 4.0 | 1030.9 | 0.0 | N | 0 | 0.0 |
| 13.11.2024 | 17:39 | 6.8 | 82 | 3.9 | 1030.9 | 0.0 | N | 0 | 0.0 |
| 13.11.2024 | 17:44 | 6.8 | 82 | 3.9 | 1030.6 | 0.0 | N | 0 | 0.0 |
| 13.11.2024 | 17:49 | 6.8 | 82 | 3.9 | 1030.7 | 0.0 | N | 0 | 0.0 |
| 13.11.2024 | 17:54 | 6.8 | 83 | 4.1 | 1030.8 | 0.0 | N | 0 | 0.0 |
| 13.11.2024 | 17:59 | 6.8 | 83 | 4.1 | 1030.7 | 0.0 | N | 0 | 0.0 |
| 13.11.2024 | 18:04 | 6.7 | 83 | 4.0 | 1030.7 | 0.0 | N | 0 | 0.0 |
| 13.11.2024 | 18:09 | 6.7 | 83 | 4.0 | 1030.6 | 0.0 | N | 0 | 0.0 |
| 13.11.2024 | 18:14 | 6.7 | 83 | 4.0 | 1030.6 | 0.0 | N | 0 | 0.0 |
| 13.11.2024 | 18:19 | 6.7 | 83 | 4.0 | 1030.8 | 0.0 | N | 0 | 0.0 |
| 13.11.2024 | 18:24 | 6.7 | 84 | 4.2 | 1030.9 | 0.0 | N | 0 | 0.0 |
| 13.11.2024 | 18:29 | 6.6 | 84 | 4.1 | 1031.0 | 0.0 | N | 0 | 0.0 |
| 13.11.2024 | 18:35 | 6.6 | 84 | 4.1 | 1030.9 | 0.0 | N | 0 | 0.0 |
| 13.11.2024 | 18:40 | 6.6 | 84 | 4.1 | 1030.9 | 0.0 | N | 0 | 0.0 |
| 13.11.2024 | 18:45 | 6.6 | 84 | 4.1 | 1030.9 | 0.0 | N | 0 | 0.0 |
| 13.11.2024 | 18:50 | 6.6 | 84 | 4.1 | 1030.9 | 0.0 | N | 0 | 0.0 |
| 13.11.2024 | 18:55 | 6.6 | 84 | 4.1 | 1030.9 | 0.0 | N | 0 | 0.0 |
| 13.11.2024 | 19:00 | 6.6 | 85 | 4.3 | 1030.9 | 0.0 | N | 0 | 0.0 |
| 13.11.2024 | 19:05 | 6.6 | 85 | 4.3 | 1030.9 | 0.0 | N | 0 | 0.0 |
| 13.11.2024 | 19:10 | 6.6 | 85 | 4.3 | 1031.0 | 0.0 | N | 0 | 0.0 |
| 13.11.2024 | 19:15 | 6.6 | 85 | 4.3 | 1031.1 | 0.0 | N | 0 | 0.0 |
| 13.11.2024 | 19:20 | 6.6 | 85 | 4.3 | 1031.1 | 0.0 | N | 0 | 0.0 |
| 13.11.2024 | 19:25 | 6.6 | 86 | 4.4 | 1031.0 | 0.0 | N | 0 | 0.0 |
| 13.11.2024 | 19:30 | 6.5 | 86 | 4.3 | 1031.0 | 0.0 | N | 0 | 0.0 |
| 13.11.2024 | 19:35 | 6.5 | 86 | 4.3 | 1031.0 | 0.0 | N | 0 | 0.0 |
| 13.11.2024 | 19:40 | 6.5 | 86 | 4.3 | 1031.0 | 0.0 | N | 0 | 0.0 |
| 13.11.2024 | 19:45 | 6.5 | 86 | 4.3 | 1030.9 | 0.0 | N | 0 | 0.0 |
| 13.11.2024 | 19:50 | 6.5 | 86 | 4.3 | 1030.9 | 0.0 | N | 0 | 0.0 |
| 13.11.2024 | 19:55 | 6.6 | 86 | 4.4 | 1030.8 | 0.0 | N | 0 | 0.0 |
| 13.11.2024 | 20:00 | 6.5 | 86 | 4.3 | 1030.8 | 0.0 | N | 0 | 0.0 |
| 13.11.2024 | 20:05 | 6.6 | 86 | 4.4 | 1030.7 | 0.0 | N | 0 | 0.0 |
| 13.11.2024 | 20:10 | 6.5 | 86 | 4.3 | 1030.8 | 0.0 | N | 0 | 0.0 |
| 13.11.2024 | 20:15 | 6.5 | 86 | 4.3 | 1030.9 | 0.0 | N | 0 | 0.0 |
| 13.11.2024 | 20:20 | 6.4 | 86 | 4.2 | 1030.8 | 0.0 | N | 0 | 0.0 |
| 13.11.2024 | 20:25 | 6.4 | 86 | 4.2 | 1030.9 | 0.0 | N | 0 | 0.0 |
| 13.11.2024 | 20:30 | 6.4 | 86 | 4.2 | 1030.9 | 0.0 | N | 0 | 0.0 |
| 13.11.2024 | 20:35 | 6.4 | 86 | 4.2 | 1030.8 | 0.0 | NW | 0 | 0.0 |
| 13.11.2024 | 20:40 | 6.4 | 86 | 4.2 | 1030.7 | 0.0 | NW | 0 | 0.0 |
| 13.11.2024 | 20:45 | 6.4 | 86 | 4.2 | 1030.7 | 0.0 | NW | 0 | 0.0 |
| 13.11.2024 | 20:50 | 6.4 | 86 | 4.2 | 1030.7 | 0.0 | NW | 0 | 0.0 |
| 13.11.2024 | 20:55 | 6.4 | 86 | 4.2 | 1030.7 | 0.0 | NW | 0 | 0.0 |
| 13.11.2024 | 21:00 | 6.4 | 86 | 4.2 | 1030.7 | 0.0 | NW | 0 | 0.0 |
| 13.11.2024 | 21:05 | 6.4 | 86 | 4.2 | 1030.6 | 0.0 | NW | 0 | 0.0 |
| 13.11.2024 | 21:10 | 6.4 | 86 | 4.2 | 1030.6 | 0.0 | NW | 0 | 0.0 |
| 13.11.2024 | 21:15 | 6.4 | 86 | 4.2 | 1030.6 | 0.0 | NW | 0 | 0.0 |
| 13.11.2024 | 21:20 | 6.5 | 86 | 4.3 | 1030.6 | 0.0 | NW | 0 | 0.0 |
| 13.11.2024 | 21:26 | 6.5 | 87 | 4.5 | 1030.5 | 0.0 | NW | 0 | 0.0 |
| 13.11.2024 | 21:31 | 6.6 | 87 | 4.6 | 1030.5 | 0.0 | NW | 0 | 0.0 |
| 13.11.2024 | 21:36 | 6.6 | 87 | 4.6 | 1030.5 | 0.0 | NW | 0 | 0.0 |
| 13.11.2024 | 21:41 | 6.6 | 87 | 4.6 | 1030.5 | 0.0 | NW | 0 | 0.0 |
| 13.11.2024 | 21:46 | 6.6 | 87 | 4.6 | 1030.5 | 0.0 | NW | 0 | 0.0 |
| 13.11.2024 | 21:51 | 6.6 | 87 | 4.6 | 1030.5 | 0.0 | NW | 0 | 0.0 |
| 13.11.2024 | 21:56 | 6.6 | 87 | 4.6 | 1030.5 | 0.0 | NW | 0 | 0.0 |
| 13.11.2024 | 22:01 | 6.6 | 87 | 4.6 | 1030.5 | 0.0 | NW | 0 | 0.0 |
| 13.11.2024 | 22:06 | 6.6 | 87 | 4.6 | 1030.5 | 0.0 | NW | 0 | 0.0 |
| 13.11.2024 | 22:11 | 6.6 | 87 | 4.6 | 1030.5 | 0.0 | NW | 0 | 0.0 |
| 13.11.2024 | 22:16 | 6.6 | 87 | 4.6 | 1030.6 | 0.0 | NW | 0 | 0.0 |
| 13.11.2024 | 22:21 | 6.6 | 87 | 4.6 | 1030.5 | 0.0 | NW | 0 | 0.0 |
| 13.11.2024 | 22:26 | 6.5 | 87 | 4.5 | 1030.5 | 0.0 | NW | 0 | 0.0 |
| 13.11.2024 | 22:31 | 6.5 | 87 | 4.5 | 1030.5 | 0.0 | NW | 0 | 0.0 |
| 13.11.2024 | 22:36 | 6.4 | 87 | 4.4 | 1030.4 | 1.4 | W | 0 | 0.0 |
| 13.11.2024 | 22:41 | 6.4 | 87 | 4.4 | 1030.2 | 1.4 | W | 0 | 0.0 |
| 13.11.2024 | 22:46 | 6.5 | 86 | 4.3 | 1030.2 | 0.0 | W | 0 | 0.0 |
| 13.11.2024 | 22:51 | 6.5 | 86 | 4.3 | 1030.3 | 0.0 | W | 0 | 0.0 |
| 13.11.2024 | 22:56 | 6.5 | 86 | 4.3 | 1030.2 | 1.4 | W | 0 | 0.0 |
| 13.11.2024 | 23:01 | 6.5 | 86 | 4.3 | 1030.1 | 1.4 | WSW | 0 | 0.0 |
| 13.11.2024 | 23:06 | 6.5 | 86 | 4.3 | 1030.1 | 0.0 | W | 0 | 0.0 |
| 13.11.2024 | 23:11 | 6.5 | 86 | 4.3 | 1030.1 | 0.0 | W | 0 | 0.0 |
| 13.11.2024 | 23:16 | 6.5 | 86 | 4.3 | 1030.0 | 0.0 | W | 0 | 0.0 |
| 13.11.2024 | 23:21 | 6.5 | 86 | 4.3 | 1030.0 | 0.0 | W | 0 | 0.0 |
| 13.11.2024 | 23:26 | 6.5 | 86 | 4.3 | 1030.2 | 3.2 | WNW | 0 | 0.0 |
| 13.11.2024 | 23:31 | 6.5 | 86 | 4.3 | 1030.2 | 0.0 | WNW | 0 | 0.0 |
| 13.11.2024 | 23:36 | 6.5 | 86 | 4.3 | 1030.2 | 1.4 | WNW | 0 | 0.0 |
| 13.11.2024 | 23:41 | 6.5 | 86 | 4.3 | 1030.2 | 0.0 | WNW | 0 | 0.0 |
| 13.11.2024 | 23:46 | 6.5 | 86 | 4.3 | 1030.2 | 0.0 | WNW | 0 | 0.0 |
| 13.11.2024 | 23:51 | 6.5 | 87 | 4.5 | 1030.3 | 0.0 | WNW | 0 | 0.0 |
| 13.11.2024 | 23:56 | 6.5 | 87 | 4.5 | 1030.3 | 1.4 | WNW | 0 | 0.0 |